Time;durP1;ratioP1;P1;durP2;ratioP2;P2;SDS_P1;SDS_P2;PMS_P1;PMS_P2;Temp;Humidity;BMP_temperature;BMP_pressure;BME280_temperature;BME280_humidity;BME280_pressure;Samples;Min_cycle;Max_cycle;Signal;HPM_P1;HPM_P2
2022/10/29 00:01:45;;;;;;;;;;;;;;;;;;4937360;29;8385;-86
2022/10/29 00:04:10;;;;;;;;;;;;;;;;;;4939268;29;7210;-87
2022/10/29 00:06:37;;;;;;;;;;;;;;;;;;4934713;29;8418;-85
2022/10/29 00:09:03;;;;;;;;;;;;;;;;;;4940355;29;7350;-87
2022/10/29 00:11:29;;;;;;;;;;;;;;;;;;4932327;29;8511;-85
2022/10/29 00:13:56;;;;;;;;;;;;;;;;;;4936030;29;8726;-85
2022/10/29 00:16:23;;;;;;;;;;;;;;;;;;4934706;29;7020;-86
2022/10/29 00:18:49;;;;;;;;;;;;;;;;;;4943458;29;7191;-85
2022/10/29 00:21:16;;;;;;;;;;;;;;;;;;4939161;29;8412;-85
2022/10/29 00:23:42;;;;;;;;;;;;;;;;;;4947134;29;8678;-82
2022/10/29 00:26:08;;;;;;;;;;;;;;;;;;4941017;29;6853;-84
2022/10/29 00:28:34;;;;;;;;;;;;;;;;;;4949571;28;8583;-80
2022/10/29 00:31:03;;;;;;;;;;;;;;;;;;4941192;28;7094;-86
2022/10/29 00:33:29;;;;;;;;;;;;;;;;;;4948726;28;8456;-80
2022/10/29 00:36:00;;;;;;;;;;;;;;;;;;4942482;29;8373;-82
2022/10/29 00:38:26;;;;;;;;;;;;;;;;;;4944708;29;8434;-85
2022/10/29 00:40:52;;;;;;;;;;;;;;;;;;4937643;29;7193;-87
2022/10/29 00:43:19;;;;;;;;;;;;;;;;;;4939944;29;8445;-84
2022/10/29 00:45:53;;;;;;;;;;;;;;;;;;4933835;29;7169;-88
2022/10/29 00:48:20;;;;;;;;;;;;;;;;;;4939347;29;7054;-85
2022/10/29 00:50:47;;;;;;;;;;;;;;;;;;4936225;28;8712;-83
2022/10/29 00:53:13;;;;;;;;;;;;;;;;;;4941858;28;8446;-85
2022/10/29 00:55:39;;;;;;;;;;;;;;;;;;4936921;28;7190;-84
2022/10/29 00:58:05;;;;;;;;;;;;;;;;;;4941664;28;8753;-85
2022/10/29 01:00:30;;;;;;;;;;;;;;;;;;4935289;28;7246;-86
2022/10/29 01:02:56;;;;;;;;;;;;;;;;;;4942380;29;8610;-85
2022/10/29 01:05:24;;;;;;;;;;;;;;;;;;4938430;28;7025;-87
2022/10/29 01:07:50;;;;;;;;;;;;;;;;;;4938939;29;8484;-87
2022/10/29 01:10:22;;;;;;;;;;;;;;;;;;4934732;29;7281;-87
2022/10/29 01:12:56;;;;;;;;;;;;;;;;;;4919565;29;7301;-87
2022/10/29 01:15:28;;;;;;;;;;;;;;;;;;4922435;28;7189;-84
2022/10/29 01:18:03;;;;;;;;;;;;;;;;;;4940449;29;6837;-84
2022/10/29 01:20:35;;;;;;;;;;;;;;;;;;4953890;28;7036;-83
2022/10/29 01:23:20;;;;;;;;;;;;;;;;;;4954180;28;7023;-84
2022/10/29 01:26:04;;;;;;;;;;;;;;;;;;4947784;28;7770;-85
2022/10/29 01:28:47;;;;;;;;;;;;;;;;;;4935232;29;7227;-83
2022/10/29 01:31:16;;;;;;;;;;;;;;;;;;4934481;28;6996;-81
2022/10/29 01:33:53;;;;;;;;;;;;;;;;;;4969272;28;7046;-80
2022/10/29 01:36:36;;;;;;;;;;;;;;;;;;4944564;29;8382;-81
2022/10/29 01:39:20;;;;;;;;;;;;;;;;;;4948637;29;7168;-81
2022/10/29 01:42:04;;;;;;;;;;;;;;;;;;4944975;29;6848;-81
2022/10/29 01:44:33;;;;;;;;;;;;;;;;;;4965050;28;8719;-81
2022/10/29 01:47:03;;;;;;;;;;;;;;;;;;4963296;28;7430;-86
2022/10/29 01:49:36;;;;;;;;;;;;;;;;;;4951510;28;8452;-80
2022/10/29 01:52:04;;;;;;;;;;;;;;;;;;4977540;28;7019;-81
2022/10/29 01:54:30;;;;;;;;;;;;;;;;;;4952251;28;7058;-80
2022/10/29 01:56:57;;;;;;;;;;;;;;;;;;4943408;29;8402;-81
2022/10/29 01:59:27;;;;;;;;;;;;;;;;;;4947774;29;6845;-81
2022/10/29 02:02:03;;;;;;;;;;;;;;;;;;4946584;28;8790;-84
2022/10/29 02:04:45;;;;;;;;;;;;;;;;;;4950801;28;7189;-82
2022/10/29 02:07:11;;;;;;;;;;;;;;;;;;4957479;28;8352;-83
2022/10/29 02:10:01;;;;;;;;;;;;;;;;;;4958352;28;8404;-81
2022/10/29 02:12:35;;;;;;;;;;;;;;;;;;4970574;28;8493;-81
2022/10/29 02:15:16;;;;;;;;;;;;;;;;;;4938225;28;8925;-88
2022/10/29 02:17:43;;;;;;;;;;;;;;;;;;4940292;28;6976;-87
2022/10/29 02:20:11;;;;;;;;;;;;;;;;;;4936692;28;7040;-82
2022/10/29 02:22:37;;;;;;;;;;;;;;;;;;4940570;28;8525;-84
2022/10/29 02:25:04;;;;;;;;;;;;;;;;;;4935301;29;7064;-80
2022/10/29 02:27:30;;;;;;;;;;;;;;;;;;4948695;29;7232;-80
2022/10/29 02:29:56;;;;;;;;;;;;;;;;;;4946691;28;7055;-81
2022/10/29 02:32:25;;;;;;;;;;;;;;;;;;4935745;29;8350;-80
2022/10/29 02:34:57;;;;;;;;;;;;;;;;;;4930795;28;6910;-80
2022/10/29 02:37:22;;;;;;;;;;;;;;;;;;4951619;28;8458;-80
2022/10/29 02:39:48;;;;;;;;;;;;;;;;;;4947862;28;7239;-80
2022/10/29 02:42:13;;;;;;;;;;;;;;;;;;4951362;28;7020;-80
2022/10/29 02:44:39;;;;;;;;;;;;;;;;;;4947714;28;7016;-81
2022/10/29 02:47:05;;;;;;;;;;;;;;;;;;4949318;28;8543;-80
2022/10/29 02:49:30;;;;;;;;;;;;;;;;;;4950766;28;7056;-79
2022/10/29 02:51:56;;;;;;;;;;;;;;;;;;4943958;29;7131;-84
2022/10/29 02:54:21;;;;;;;;;;;;;;;;;;4947785;29;7248;-80
2022/10/29 02:56:47;;;;;;;;;;;;;;;;;;4947829;29;7162;-80
2022/10/29 02:59:12;;;;;;;;;;;;;;;;;;4948540;29;6978;-80
2022/10/29 03:01:37;;;;;;;;;;;;;;;;;;4948018;29;8844;-80
2022/10/29 03:04:03;;;;;;;;;;;;;;;;;;4948104;29;8370;-80
2022/10/29 03:06:28;;;;;;;;;;;;;;;;;;4948276;29;7127;-80
2022/10/29 03:08:54;;;;;;;;;;;;;;;;;;4948229;29;6936;-80
2022/10/29 03:11:19;;;;;;;;;;;;;;;;;;4948357;29;8649;-80
2022/10/29 03:13:45;;;;;;;;;;;;;;;;;;4948056;29;7212;-80
2022/10/29 03:16:10;;;;;;;;;;;;;;;;;;4948143;29;8924;-80
2022/10/29 03:18:36;;;;;;;;;;;;;;;;;;4948140;29;8249;-80
2022/10/29 03:21:02;;;;;;;;;;;;;;;;;;4948049;29;8536;-80
2022/10/29 03:23:28;;;;;;;;;;;;;;;;;;4947573;29;7145;-80
2022/10/29 03:25:55;;;;;;;;;;;;;;;;;;4948063;29;8262;-80
2022/10/29 03:28:21;;;;;;;;;;;;;;;;;;4947851;29;7198;-80
2022/10/29 03:30:47;;;;;;;;;;;;;;;;;;4947084;29;7013;-80
2022/10/29 03:33:12;;;;;;;;;;;;;;;;;;4942879;29;6975;-86
2022/10/29 03:35:38;;;;;;;;;;;;;;;;;;4943158;29;8493;-85
2022/10/29 03:38:03;;;;;;;;;;;;;;;;;;4943556;29;7232;-87
2022/10/29 03:40:28;;;;;;;;;;;;;;;;;;4945628;29;8885;-84
2022/10/29 03:42:54;;;;;;;;;;;;;;;;;;4946809;29;7165;-82
2022/10/29 03:45:19;;;;;;;;;;;;;;;;;;4945348;29;6815;-85
2022/10/29 03:47:45;;;;;;;;;;;;;;;;;;4945172;29;7949;-83
2022/10/29 03:50:11;;;;;;;;;;;;;;;;;;4944122;29;7098;-85
2022/10/29 03:52:36;;;;;;;;;;;;;;;;;;4944987;29;6891;-85
2022/10/29 03:55:03;;;;;;;;;;;;;;;;;;4948195;29;7208;-80
2022/10/29 03:57:28;;;;;;;;;;;;;;;;;;4949177;29;8435;-82
2022/10/29 03:59:54;;;;;;;;;;;;;;;;;;4939037;29;7212;-80
2022/10/29 04:02:20;;;;;;;;;;;;;;;;;;4936453;29;7175;-80
2022/10/29 04:04:46;;;;;;;;;;;;;;;;;;4937228;29;8594;-84
2022/10/29 04:07:12;;;;;;;;;;;;;;;;;;4942025;29;7037;-80
2022/10/29 04:09:37;;;;;;;;;;;;;;;;;;4941716;29;7234;-81
2022/10/29 04:12:03;;;;;;;;;;;;;;;;;;4939117;29;7014;-81
2022/10/29 04:14:28;;;;;;;;;;;;;;;;;;4939002;29;7006;-80
2022/10/29 04:16:53;;;;;;;;;;;;;;;;;;4938827;29;8688;-81
2022/10/29 04:19:19;;;;;;;;;;;;;;;;;;4950669;29;7243;-79
2022/10/29 04:21:44;;;;;;;;;;;;;;;;;;4946236;29;6825;-86
2022/10/29 04:24:10;;;;;;;;;;;;;;;;;;4946852;29;8711;-85
2022/10/29 04:26:35;;;;;;;;;;;;;;;;;;4945942;29;8392;-89
2022/10/29 04:29:00;;;;;;;;;;;;;;;;;;4943639;29;8684;-84
2022/10/29 04:31:26;;;;;;;;;;;;;;;;;;4948682;29;8553;-80
2022/10/29 04:33:52;;;;;;;;;;;;;;;;;;4948085;29;8864;-83
2022/10/29 04:36:17;;;;;;;;;;;;;;;;;;4946993;29;7156;-84
2022/10/29 04:38:43;;;;;;;;;;;;;;;;;;4946052;29;8360;-81
2022/10/29 04:41:08;;;;;;;;;;;;;;;;;;4949681;29;8407;-80
2022/10/29 04:43:34;;;;;;;;;;;;;;;;;;4947231;29;7436;-87
2022/10/29 04:45:59;;;;;;;;;;;;;;;;;;4939369;29;8550;-84
2022/10/29 04:48:26;;;;;;;;;;;;;;;;;;4942842;29;8481;-85
2022/10/29 04:50:52;;;;;;;;;;;;;;;;;;4944927;29;8472;-81
2022/10/29 04:53:18;;;;;;;;;;;;;;;;;;4941721;29;8481;-86
2022/10/29 04:55:44;;;;;;;;;;;;;;;;;;4942483;29;7259;-85
2022/10/29 04:58:14;;;;;;;;;;;;;;;;;;4944203;29;8478;-81
2022/10/29 05:00:41;;;;;;;;;;;;;;;;;;4947427;29;8382;-88
2022/10/29 05:03:07;;;;;;;;;;;;;;;;;;4948515;29;8468;-81
2022/10/29 05:05:33;;;;;;;;;;;;;;;;;;4947744;29;7146;-82
2022/10/29 05:08:02;;;;;;;;;;;;;;;;;;4949102;29;7198;-80
2022/10/29 05:10:29;;;;;;;;;;;;;;;;;;4945211;29;8460;-85
2022/10/29 05:12:56;;;;;;;;;;;;;;;;;;4935760;28;8405;-80
2022/10/29 05:15:21;;;;;;;;;;;;;;;;;;4952678;28;6861;-81
2022/10/29 05:17:47;;;;;;;;;;;;;;;;;;4948561;28;8723;-86
2022/10/29 05:20:12;;;;;;;;;;;;;;;;;;4931385;28;7531;-85
2022/10/29 05:22:38;;;;;;;;;;;;;;;;;;4925422;29;8324;-87
2022/10/29 05:25:03;;;;;;;;;;;;;;;;;;4922270;29;8615;-86
2022/10/29 05:27:29;;;;;;;;;;;;;;;;;;4923076;29;7021;-89
2022/10/29 05:29:55;;;;;;;;;;;;;;;;;;4922164;29;7189;-84
2022/10/29 05:32:20;;;;;;;;;;;;;;;;;;4922857;29;9294;-87
2022/10/29 05:34:46;;;;;;;;;;;;;;;;;;4922700;29;7017;-88
2022/10/29 05:37:11;;;;;;;;;;;;;;;;;;4927883;29;6992;-82
2022/10/29 05:39:37;;;;;;;;;;;;;;;;;;4930436;29;8756;-87
2022/10/29 05:42:02;;;;;;;;;;;;;;;;;;4923968;29;7021;-87
2022/10/29 05:44:27;;;;;;;;;;;;;;;;;;4921646;29;8362;-83
2022/10/29 05:46:53;;;;;;;;;;;;;;;;;;4920693;29;7028;-86
2022/10/29 05:49:18;;;;;;;;;;;;;;;;;;4935682;28;7024;-85
2022/10/29 05:51:44;;;;;;;;;;;;;;;;;;4943333;28;8629;-84
2022/10/29 05:54:09;;;;;;;;;;;;;;;;;;4924243;29;8390;-87
2022/10/29 05:56:35;;;;;;;;;;;;;;;;;;4923054;29;8431;-87
2022/10/29 05:59:00;;;;;;;;;;;;;;;;;;4925715;29;8394;-85
2022/10/29 06:01:26;;;;;;;;;;;;;;;;;;4922349;29;7121;-84
2022/10/29 06:03:51;;;;;;;;;;;;;;;;;;4927740;29;8448;-86
2022/10/29 06:06:16;;;;;;;;;;;;;;;;;;4926841;29;8590;-86
2022/10/29 06:08:42;;;;;;;;;;;;;;;;;;4934783;28;7012;-84
2022/10/29 06:11:07;;;;;;;;;;;;;;;;;;4936799;29;7181;-78
2022/10/29 06:13:33;;;;;;;;;;;;;;;;;;4922667;29;7164;-86
2022/10/29 06:15:59;;;;;;;;;;;;;;;;;;4923064;29;7016;-87
2022/10/29 06:18:26;;;;;;;;;;;;;;;;;;4925722;29;8717;-85
2022/10/29 06:20:52;;;;;;;;;;;;;;;;;;4921312;29;7159;-87
2022/10/29 06:23:17;;;;;;;;;;;;;;;;;;4921813;29;7093;-88
2022/10/29 06:25:43;;;;;;;;;;;;;;;;;;4930353;28;7225;-88
2022/10/29 06:28:14;;;;;;;;;;;;;;;;;;4939173;28;8445;-88
2022/10/29 06:30:40;;;;;;;;;;;;;;;;;;4927067;29;7515;-84
2022/10/29 06:33:05;;;;;;;;;;;;;;;;;;4920924;29;8458;-86
2022/10/29 06:35:36;;;;;;;;;;;;;;;;;;4922757;29;8287;-89
2022/10/29 06:38:07;;;;;;;;;;;;;;;;;;4934385;29;7268;-89
2022/10/29 06:40:38;;;;;;;;;;;;;;;;;;4927161;29;8526;-87
2022/10/29 06:43:09;;;;;;;;;;;;;;;;;;4928814;29;7085;-87
2022/10/29 06:45:35;;;;;;;;;;;;;;;;;;4929765;29;7207;-86
2022/10/29 06:48:03;;;;;;;;;;;;;;;;;;4929851;29;7185;-86
2022/10/29 06:50:33;;;;;;;;;;;;;;;;;;4946692;29;6912;-86
2022/10/29 06:53:05;;;;;;;;;;;;;;;;;;4932075;29;7055;-84
2022/10/29 06:55:34;;;;;;;;;;;;;;;;;;4931847;29;8322;-85
2022/10/29 06:58:02;;;;;;;;;;;;;;;;;;4928795;29;7128;-86
2022/10/29 07:00:29;;;;;;;;;;;;;;;;;;4930310;29;6864;-84
2022/10/29 07:02:55;;;;;;;;;;;;;;;;;;4927606;29;7020;-86
2022/10/29 07:05:22;;;;;;;;;;;;;;;;;;4924299;29;7020;-88
2022/10/29 07:07:48;;;;;;;;;;;;;;;;;;4926425;29;7085;-84
2022/10/29 07:10:15;;;;;;;;;;;;;;;;;;4926316;29;8347;-84
2022/10/29 07:12:42;;;;;;;;;;;;;;;;;;4921538;29;8347;-85
2022/10/29 07:15:08;;;;;;;;;;;;;;;;;;4923666;29;7052;-80
2022/10/29 07:17:33;;;;;;;;;;;;;;;;;;4929516;29;6873;-82
2022/10/29 07:19:59;;;;;;;;;;;;;;;;;;4926772;29;7405;-82
2022/10/29 07:22:24;;;;;;;;;;;;;;;;;;4929214;29;8384;-83
2022/10/29 07:24:50;;;;;;;;;;;;;;;;;;4922975;29;8331;-86
2022/10/29 07:27:15;;;;;;;;;;;;;;;;;;4920491;29;8423;-86
2022/10/29 07:29:41;;;;;;;;;;;;;;;;;;4920439;29;8769;-86
2022/10/29 07:32:06;;;;;;;;;;;;;;;;;;4920309;29;7310;-88
2022/10/29 07:34:32;;;;;;;;;;;;;;;;;;4920368;29;8564;-85
2022/10/29 07:36:57;;;;;;;;;;;;;;;;;;4919801;29;8954;-87
2022/10/29 07:39:22;;;;;;;;;;;;;;;;;;4936982;28;6845;-88
2022/10/29 07:41:48;;;;;;;;;;;;;;;;;;4926668;29;8469;-85
2022/10/29 07:44:13;;;;;;;;;;;;;;;;;;4924512;28;8576;-88
2022/10/29 07:46:39;;;;;;;;;;;;;;;;;;4922985;29;8448;-89
2022/10/29 07:49:04;;;;;;;;;;;;;;;;;;4923826;29;7029;-88
2022/10/29 07:51:30;;;;;;;;;;;;;;;;;;4928643;28;8674;-86
2022/10/29 07:53:55;;;;;;;;;;;;;;;;;;4943053;28;7895;-84
2022/10/29 07:56:21;;;;;;;;;;;;;;;;;;4932838;29;9331;-87
2022/10/29 07:58:46;;;;;;;;;;;;;;;;;;4923572;29;8799;-88
2022/10/29 08:01:12;;;;;;;;;;;;;;;;;;4923642;29;8444;-88
2022/10/29 08:03:37;;;;;;;;;;;;;;;;;;4923878;29;8570;-87
2022/10/29 08:06:02;;;;;;;;;;;;;;;;;;4923709;29;8568;-87
2022/10/29 08:08:29;;;;;;;;;;;;;;;;;;4924032;29;8365;-83
2022/10/29 08:10:59;;;;;;;;;;;;;;;;;;4926679;29;7194;-87
2022/10/29 08:13:25;;;;;;;;;;;;;;;;;;4916784;29;8652;-88
2022/10/29 08:15:58;;;;;;;;;;;;;;;;;;4926198;29;8535;-88
2022/10/29 08:18:26;;;;;;;;;;;;;;;;;;4932157;29;7091;-84
2022/10/29 08:20:57;;;;;;;;;;;;;;;;;;4930504;29;7057;-84
2022/10/29 08:23:24;;;;;;;;;;;;;;;;;;4953630;29;6846;-83
2022/10/29 08:25:49;;;;;;;;;;;;;;;;;;4932696;29;6820;-77
2022/10/29 08:28:19;;;;;;;;;;;;;;;;;;4950397;29;7506;-89
2022/10/29 08:30:49;;;;;;;;;;;;;;;;;;4931611;29;6877;-87
2022/10/29 08:33:17;;;;;;;;;;;;;;;;;;4929542;29;8494;-85
2022/10/29 08:35:43;;;;;;;;;;;;;;;;;;4929019;29;7241;-86
2022/10/29 08:38:09;;;;;;;;;;;;;;;;;;4931041;29;8468;-87
2022/10/29 08:40:43;;;;;;;;;;;;;;;;;;4927744;29;7117;-84
2022/10/29 08:43:21;;;;;;;;;;;;;;;;;;4946021;29;7139;-88
2022/10/29 08:45:49;;;;;;;;;;;;;;;;;;4947066;28;8443;-85
2022/10/29 08:48:25;;;;;;;;;;;;;;;;;;4930825;29;7196;-88
2022/10/29 08:51:12;;;;;;;;;;;;;;;;;;4922159;29;8406;-87
2022/10/29 08:53:48;;;;;;;;;;;;;;;;;;4920284;29;7194;-85
2022/10/29 08:56:17;;;;;;;;;;;;;;;;;;4923582;29;8779;-90
2022/10/29 08:58:57;;;;;;;;;;;;;;;;;;4923172;29;8420;-87
2022/10/29 09:01:23;;;;;;;;;;;;;;;;;;4923125;29;7048;-85
2022/10/29 09:03:50;;;;;;;;;;;;;;;;;;4922830;29;8415;-86
2022/10/29 09:06:24;;;;;;;;;;;;;;;;;;4923134;29;7366;-89
2022/10/29 09:09:08;;;;;;;;;;;;;;;;;;4922967;29;8543;-88
2022/10/29 09:11:40;;;;;;;;;;;;;;;;;;4922603;29;7203;-87
2022/10/29 09:14:14;;;;;;;;;;;;;;;;;;4939967;29;8445;-85
2022/10/29 09:16:59;;;;;;;;;;;;;;;;;;4940712;29;7234;-86
2022/10/29 09:19:24;;;;;;;;;;;;;;;;;;4939397;29;8630;-88
2022/10/29 09:22:01;;;;;;;;;;;;;;;;;;4940578;29;8410;-87
2022/10/29 09:24:36;;;;;;;;;;;;;;;;;;4922731;29;8766;-87
2022/10/29 09:27:10;;;;;;;;;;;;;;;;;;4923035;29;7178;-88
2022/10/29 09:29:54;;;;;;;;;;;;;;;;;;4922955;29;8433;-87
2022/10/29 09:32:39;;;;;;;;;;;;;;;;;;4938653;29;8511;-85
2022/10/29 09:35:14;;;;;;;;;;;;;;;;;;4937772;29;8511;-86
2022/10/29 09:37:47;;;;;;;;;;;;;;;;;;4922616;29;8855;-85
2022/10/29 09:40:24;;;;;;;;;;;;;;;;;;4921624;29;8561;-84
2022/10/29 09:42:51;;;;;;;;;;;;;;;;;;4921900;29;6861;-86
2022/10/29 09:45:22;;;;;;;;;;;;;;;;;;4921881;29;8615;-86
2022/10/29 09:48:08;;;;;;;;;;;;;;;;;;4921662;29;7346;-86
2022/10/29 09:50:40;;;;;;;;;;;;;;;;;;4922731;29;8354;-87
2022/10/29 09:53:07;;;;;;;;;;;;;;;;;;4922302;29;7201;-83
2022/10/29 09:55:52;;;;;;;;;;;;;;;;;;4921374;29;7414;-88
2022/10/29 09:58:22;;;;;;;;;;;;;;;;;;4921784;29;7160;-82
2022/10/29 10:00:49;;;;;;;;;;;;;;;;;;4922492;29;7064;-87
2022/10/29 10:03:21;;;;;;;;;;;;;;;;;;4915848;29;8519;-86
2022/10/29 10:05:58;;;;;;;;;;;;;;;;;;4902570;29;8679;-87
2022/10/29 10:08:28;;;;;;;;;;;;;;;;;;4903050;29;8447;-86
2022/10/29 10:11:04;;;;;;;;;;;;;;;;;;4925942;29;7153;-87
2022/10/29 10:13:33;;;;;;;;;;;;;;;;;;4910434;29;6957;-83
2022/10/29 10:16:00;;;;;;;;;;;;;;;;;;4902694;29;7268;-88
2022/10/29 10:18:38;;;;;;;;;;;;;;;;;;4909792;29;7191;-88
2022/10/29 10:21:12;;;;;;;;;;;;;;;;;;4911947;29;7053;-85
2022/10/29 10:23:45;;;;;;;;;;;;;;;;;;4908976;29;8598;-89
2022/10/29 10:26:29;;;;;;;;;;;;;;;;;;4908296;29;7257;-83
2022/10/29 10:29:03;;;;;;;;;;;;;;;;;;4905526;29;6876;-87
2022/10/29 10:31:29;;;;;;;;;;;;;;;;;;4902470;29;7044;-87
2022/10/29 10:33:55;;;;;;;;;;;;;;;;;;4902525;29;8579;-87
2022/10/29 10:36:23;;;;;;;;;;;;;;;;;;4903468;29;7103;-90
2022/10/29 10:38:50;;;;;;;;;;;;;;;;;;4903046;29;8451;-86
2022/10/29 10:41:22;;;;;;;;;;;;;;;;;;4902581;29;7199;-87
2022/10/29 10:43:48;;;;;;;;;;;;;;;;;;4903405;29;7451;-86
2022/10/29 10:46:21;;;;;;;;;;;;;;;;;;4902225;29;8615;-86
2022/10/29 10:48:56;;;;;;;;;;;;;;;;;;4902177;29;8351;-86
2022/10/29 10:51:21;;;;;;;;;;;;;;;;;;4902382;29;7901;-88
2022/10/29 10:53:49;;;;;;;;;;;;;;;;;;4902317;29;7000;-85
2022/10/29 10:56:19;;;;;;;;;;;;;;;;;;4902258;29;7268;-86
2022/10/29 10:58:50;;;;;;;;;;;;;;;;;;4902315;29;7139;-87
2022/10/29 11:01:22;;;;;;;;;;;;;;;;;;4901751;29;8341;-86
2022/10/29 11:03:53;;;;;;;;;;;;;;;;;;4902333;29;8012;-87
2022/10/29 11:06:23;;;;;;;;;;;;;;;;;;4902327;29;8519;-87
2022/10/29 11:08:53;;;;;;;;;;;;;;;;;;4901850;29;8469;-87
2022/10/29 11:11:26;;;;;;;;;;;;;;;;;;4901706;29;8451;-87
2022/10/29 11:13:57;;;;;;;;;;;;;;;;;;4902032;29;7091;-87
2022/10/29 11:16:43;;;;;;;;;;;;;;;;;;4902029;29;8401;-86
2022/10/29 11:19:18;;;;;;;;;;;;;;;;;;4898198;29;8439;-87
2022/10/29 11:21:52;;;;;;;;;;;;;;;;;;4920216;29;7092;-87
2022/10/29 11:24:37;;;;;;;;;;;;;;;;;;4952521;29;8616;-87
2022/10/29 11:27:26;;;;;;;;;;;;;;;;;;4927717;29;7026;-88
2022/10/29 11:30:21;;;;;;;;;;;;;;;;;;4923753;29;7414;-87
2022/10/29 11:33:05;;;;;;;;;;;;;;;;;;4916521;29;8530;-86
2022/10/29 11:35:59;;;;;;;;;;;;;;;;;;4952236;29;8421;-87
2022/10/29 11:38:37;;;;;;;;;;;;;;;;;;4920233;29;8397;-86
2022/10/29 11:41:17;;;;;;;;;;;;;;;;;;4919989;29;7192;-86
2022/10/29 11:43:45;;;;;;;;;;;;;;;;;;4951873;29;8937;-85
2022/10/29 11:46:11;;;;;;;;;;;;;;;;;;4920536;29;7331;-86
2022/10/29 11:48:55;;;;;;;;;;;;;;;;;;4951952;29;7040;-85
2022/10/29 11:51:36;;;;;;;;;;;;;;;;;;4952203;29;7358;-86
2022/10/29 11:54:08;;;;;;;;;;;;;;;;;;4952268;29;8353;-86
2022/10/29 11:56:55;;;;;;;;;;;;;;;;;;4920049;29;7211;-87
2022/10/29 11:59:26;;;;;;;;;;;;;;;;;;4920816;29;8472;-87
2022/10/29 12:02:00;;;;;;;;;;;;;;;;;;4951852;29;7311;-87
2022/10/29 12:04:34;;;;;;;;;;;;;;;;;;4920184;29;8891;-85
2022/10/29 12:07:15;;;;;;;;;;;;;;;;;;4919418;29;8298;-86
2022/10/29 12:10:00;;;;;;;;;;;;;;;;;;4951999;29;8509;-86
2022/10/29 12:12:38;;;;;;;;;;;;;;;;;;4916561;29;8360;-86
2022/10/29 12:15:03;;;;;;;;;;;;;;;;;;4952117;29;8558;-85
2022/10/29 12:17:38;;;;;;;;;;;;;;;;;;4951404;29;7071;-81
2022/10/29 12:20:03;;;;;;;;;;;;;;;;;;4917775;29;8550;-82
2022/10/29 12:22:38;;;;;;;;;;;;;;;;;;4938866;29;7217;-85
2022/10/29 12:25:18;;;;;;;;;;;;;;;;;;4935112;29;7050;-85
2022/10/29 12:27:59;;;;;;;;;;;;;;;;;;4939312;29;7047;-82
2022/10/29 12:30:27;;;;;;;;;;;;;;;;;;4939489;29;8348;-84
2022/10/29 12:32:53;;;;;;;;;;;;;;;;;;4923969;29;7117;-86
2022/10/29 12:35:28;;;;;;;;;;;;;;;;;;4943301;29;8516;-86
2022/10/29 12:38:08;;;;;;;;;;;;;;;;;;4920071;29;7135;-81
2022/10/29 12:40:37;;;;;;;;;;;;;;;;;;4903699;29;8622;-81
2022/10/29 12:43:06;;;;;;;;;;;;;;;;;;4919520;29;6941;-83
2022/10/29 12:45:55;;;;;;;;;;;;;;;;;;4922458;29;7103;-82
2022/10/29 12:48:21;;;;;;;;;;;;;;;;;;4921231;29;7021;-80
2022/10/29 12:50:58;;;;;;;;;;;;;;;;;;4960567;28;8644;-82
2022/10/29 12:53:43;;;;;;;;;;;;;;;;;;4944000;28;7416;-84
2022/10/29 12:56:11;;;;;;;;;;;;;;;;;;4944547;28;8410;-85
2022/10/29 12:58:47;;;;;;;;;;;;;;;;;;4941665;29;8568;-83
2022/10/29 13:01:39;;;;;;;;;;;;;;;;;;4926688;29;7233;-83
2022/10/29 13:04:21;;;;;;;;;;;;;;;;;;4922979;29;8365;-83
2022/10/29 13:06:55;;;;;;;;;;;;;;;;;;4924042;29;8771;-83
2022/10/29 13:09:22;;;;;;;;;;;;;;;;;;4922327;29;7218;-85
2022/10/29 13:11:50;;;;;;;;;;;;;;;;;;4921219;29;7242;-86
2022/10/29 13:14:20;;;;;;;;;;;;;;;;;;4921672;29;7273;-87
2022/10/29 13:16:49;;;;;;;;;;;;;;;;;;4922077;29;8454;-86
2022/10/29 13:19:23;;;;;;;;;;;;;;;;;;4921904;29;8756;-86
2022/10/29 13:22:15;;;;;;;;;;;;;;;;;;4922297;29;8436;-86
2022/10/29 13:24:41;;;;;;;;;;;;;;;;;;4907149;29;8482;-85
2022/10/29 13:27:15;;;;;;;;;;;;;;;;;;4920639;28;7092;-86
2022/10/29 13:29:42;;;;;;;;;;;;;;;;;;4956747;28;8490;-86
2022/10/29 13:32:27;;;;;;;;;;;;;;;;;;4943314;28;7239;-83
2022/10/29 13:34:55;;;;;;;;;;;;;;;;;;4942512;28;7224;-82
2022/10/29 13:37:37;;;;;;;;;;;;;;;;;;4941085;28;7106;-86
2022/10/29 13:40:20;;;;;;;;;;;;;;;;;;4939783;28;7113;-84
2022/10/29 13:42:56;;;;;;;;;;;;;;;;;;4956155;28;8449;-86
2022/10/29 13:45:22;;;;;;;;;;;;;;;;;;4941251;28;7165;-85
2022/10/29 13:47:49;;;;;;;;;;;;;;;;;;4941369;28;8370;-86
2022/10/29 13:50:20;;;;;;;;;;;;;;;;;;4943584;28;8510;-87
2022/10/29 13:52:51;;;;;;;;;;;;;;;;;;4958197;28;7092;-86
2022/10/29 13:55:19;;;;;;;;;;;;;;;;;;4943438;28;7078;-87
2022/10/29 13:57:53;;;;;;;;;;;;;;;;;;4941089;28;8536;-82
2022/10/29 14:00:21;;;;;;;;;;;;;;;;;;4960911;28;7230;-85
2022/10/29 14:02:52;;;;;;;;;;;;;;;;;;4943227;28;6899;-86
2022/10/29 14:05:24;;;;;;;;;;;;;;;;;;4955903;28;8479;-87
2022/10/29 14:07:59;;;;;;;;;;;;;;;;;;4956154;28;8524;-83
2022/10/29 14:10:41;;;;;;;;;;;;;;;;;;4940643;28;7212;-87
2022/10/29 14:13:21;;;;;;;;;;;;;;;;;;4940437;28;7259;-82
2022/10/29 14:16:02;;;;;;;;;;;;;;;;;;4939797;28;8528;-82
2022/10/29 14:18:30;;;;;;;;;;;;;;;;;;4955775;28;7052;-85
2022/10/29 14:20:56;;;;;;;;;;;;;;;;;;4939772;28;8385;-82
2022/10/29 14:23:22;;;;;;;;;;;;;;;;;;4940548;28;8492;-87
2022/10/29 14:25:52;;;;;;;;;;;;;;;;;;4935538;29;8466;-86
2022/10/29 14:28:21;;;;;;;;;;;;;;;;;;4925403;29;7149;-86
2022/10/29 14:30:47;;;;;;;;;;;;;;;;;;4937079;29;7388;-87
2022/10/29 14:33:22;;;;;;;;;;;;;;;;;;4931766;28;8467;-87
2022/10/29 14:35:48;;;;;;;;;;;;;;;;;;4955491;28;7069;-80
2022/10/29 14:38:14;;;;;;;;;;;;;;;;;;4938606;28;8732;-83
2022/10/29 14:40:43;;;;;;;;;;;;;;;;;;4941320;28;7035;-89
2022/10/29 14:43:23;;;;;;;;;;;;;;;;;;4942614;28;7363;-84
2022/10/29 14:45:48;;;;;;;;;;;;;;;;;;4939491;28;8525;-87
2022/10/29 14:48:17;;;;;;;;;;;;;;;;;;4940659;28;7420;-86
2022/10/29 14:50:48;;;;;;;;;;;;;;;;;;4943718;28;7263;-85
2022/10/29 14:53:31;;;;;;;;;;;;;;;;;;4945117;28;8442;-84
2022/10/29 14:55:59;;;;;;;;;;;;;;;;;;4944255;28;7175;-86
2022/10/29 14:58:28;;;;;;;;;;;;;;;;;;4946394;28;8855;-85
2022/10/29 15:01:07;;;;;;;;;;;;;;;;;;4940821;28;8692;-87
2022/10/29 15:03:34;;;;;;;;;;;;;;;;;;4937720;28;7267;-84
2022/10/29 15:06:17;;;;;;;;;;;;;;;;;;4920389;29;7033;-87
2022/10/29 15:09:00;;;;;;;;;;;;;;;;;;4936095;29;8510;-87
2022/10/29 15:11:33;;;;;;;;;;;;;;;;;;4920427;29;8411;-87
2022/10/29 15:14:00;;;;;;;;;;;;;;;;;;4920636;29;7277;-84
2022/10/29 15:16:27;;;;;;;;;;;;;;;;;;4919769;29;8433;-88
2022/10/29 15:18:55;;;;;;;;;;;;;;;;;;4919810;29;8456;-87
2022/10/29 15:21:28;;;;;;;;;;;;;;;;;;4919858;29;7278;-89
2022/10/29 15:24:02;;;;;;;;;;;;;;;;;;4919862;29;8486;-84
2022/10/29 15:26:28;;;;;;;;;;;;;;;;;;4920317;29;8674;-86
2022/10/29 15:28:55;;;;;;;;;;;;;;;;;;4919666;29;8495;-86
2022/10/29 15:31:28;;;;;;;;;;;;;;;;;;4919681;29;8833;-87
2022/10/29 15:33:56;;;;;;;;;;;;;;;;;;4919751;29;7206;-88
2022/10/29 15:36:21;;;;;;;;;;;;;;;;;;4918694;29;8431;-85
2022/10/29 15:38:46;;;;;;;;;;;;;;;;;;4921610;29;7026;-85
2022/10/29 15:41:18;;;;;;;;;;;;;;;;;;4953126;29;8409;-87
2022/10/29 15:43:50;;;;;;;;;;;;;;;;;;4950920;29;8776;-87
2022/10/29 15:46:24;;;;;;;;;;;;;;;;;;4934107;29;8682;-87
2022/10/29 15:48:50;;;;;;;;;;;;;;;;;;4935203;29;7014;-87
2022/10/29 15:51:16;;;;;;;;;;;;;;;;;;4935391;29;8439;-87
2022/10/29 15:53:42;;;;;;;;;;;;;;;;;;4933281;29;8500;-88
2022/10/29 15:56:12;;;;;;;;;;;;;;;;;;4932894;29;6864;-86
2022/10/29 15:58:38;;;;;;;;;;;;;;;;;;4931646;29;8541;-86
2022/10/29 16:01:04;;;;;;;;;;;;;;;;;;4937696;28;8424;-87
2022/10/29 16:03:29;;;;;;;;;;;;;;;;;;4938615;29;8410;-86
2022/10/29 16:05:59;;;;;;;;;;;;;;;;;;4937409;29;7299;-81
2022/10/29 16:08:25;;;;;;;;;;;;;;;;;;4937144;29;6935;-84
2022/10/29 16:10:50;;;;;;;;;;;;;;;;;;4955308;28;7042;-87
2022/10/29 16:13:17;;;;;;;;;;;;;;;;;;4947835;28;8485;-87
2022/10/29 16:15:43;;;;;;;;;;;;;;;;;;4947268;28;7207;-84
2022/10/29 16:18:08;;;;;;;;;;;;;;;;;;4947788;28;8436;-85
2022/10/29 16:20:34;;;;;;;;;;;;;;;;;;4945917;28;8422;-87
2022/10/29 16:23:00;;;;;;;;;;;;;;;;;;4945255;28;6870;-84
2022/10/29 16:25:27;;;;;;;;;;;;;;;;;;4942021;28;8448;-88
2022/10/29 16:27:52;;;;;;;;;;;;;;;;;;4942711;28;6966;-87
2022/10/29 16:30:19;;;;;;;;;;;;;;;;;;4943196;28;7181;-87
2022/10/29 16:32:46;;;;;;;;;;;;;;;;;;4950033;28;7273;-81
2022/10/29 16:35:22;;;;;;;;;;;;;;;;;;4953861;28;7245;-80
2022/10/29 16:37:48;;;;;;;;;;;;;;;;;;4940672;29;7278;-80
2022/10/29 16:40:15;;;;;;;;;;;;;;;;;;4933606;29;7196;-85
2022/10/29 16:42:41;;;;;;;;;;;;;;;;;;4923410;29;7051;-88
2022/10/29 16:45:11;;;;;;;;;;;;;;;;;;4923236;29;8461;-85
2022/10/29 16:47:37;;;;;;;;;;;;;;;;;;4922888;29;9426;-87
2022/10/29 16:50:02;;;;;;;;;;;;;;;;;;4923601;29;7069;-86
2022/10/29 16:52:28;;;;;;;;;;;;;;;;;;4922862;29;8617;-87
2022/10/29 16:54:54;;;;;;;;;;;;;;;;;;4923110;29;8486;-86
2022/10/29 16:57:19;;;;;;;;;;;;;;;;;;4923342;29;8411;-87
2022/10/29 16:59:44;;;;;;;;;;;;;;;;;;4919451;29;8440;-85
2022/10/29 17:02:10;;;;;;;;;;;;;;;;;;4905529;29;9035;-87
2022/10/29 17:04:36;;;;;;;;;;;;;;;;;;4904247;29;7063;-86
2022/10/29 17:07:02;;;;;;;;;;;;;;;;;;4904769;29;7182;-88
2022/10/29 17:09:29;;;;;;;;;;;;;;;;;;4903422;29;7396;-87
2022/10/29 17:11:56;;;;;;;;;;;;;;;;;;4903173;29;7194;-86
2022/10/29 17:14:22;;;;;;;;;;;;;;;;;;4908002;29;7076;-88
2022/10/29 17:16:48;;;;;;;;;;;;;;;;;;4922206;29;7195;-87
2022/10/29 17:19:13;;;;;;;;;;;;;;;;;;4940472;29;7028;-87
2022/10/29 17:21:39;;;;;;;;;;;;;;;;;;4924515;29;7174;-86